createdAt,value
2019-03-17T00:00:19.494Z,0.00
2019-03-17T00:01:19.493Z,0.00
2019-03-17T00:02:19.468Z,0.00
2019-03-17T00:03:19.467Z,0.00
2019-03-17T00:04:30.636Z,0.00
2019-03-17T00:05:20.447Z,0.00
2019-03-17T00:06:19.434Z,0.00
2019-03-17T00:07:19.409Z,0.00
2019-03-17T00:08:19.421Z,0.00
2019-03-17T00:09:19.396Z,0.00
2019-03-17T00:10:19.394Z,0.00
2019-03-17T00:11:19.379Z,0.00
2019-03-17T00:12:19.376Z,0.00
2019-03-17T00:13:19.398Z,0.00
2019-03-17T00:14:19.384Z,0.00
2019-03-17T00:15:19.343Z,0.00
2019-03-17T00:16:19.355Z,0.00
2019-03-17T00:17:19.325Z,0.00
2019-03-17T00:18:19.310Z,0.00
2019-03-17T00:19:19.281Z,0.00
2019-03-17T00:20:19.282Z,0.00
2019-03-17T00:21:19.332Z,0.00
2019-03-17T00:22:19.285Z,0.00
2019-03-17T00:23:19.249Z,0.00
2019-03-17T00:24:19.246Z,0.00
2019-03-17T00:25:19.222Z,0.00
2019-03-17T00:26:19.213Z,0.00
2019-03-17T00:27:19.214Z,0.00
2019-03-17T00:28:19.204Z,0.00
2019-03-17T00:29:19.196Z,0.00
2019-03-17T00:30:19.173Z,0.00
2019-03-17T00:31:24.195Z,0.00
2019-03-17T00:32:20.156Z,0.00
2019-03-17T00:33:19.164Z,0.00
2019-03-17T00:34:19.128Z,0.00
2019-03-17T00:35:19.117Z,0.00
2019-03-17T00:36:19.144Z,0.00
2019-03-17T00:37:19.085Z,0.00
2019-03-17T00:38:19.091Z,0.00
2019-03-17T00:39:19.078Z,0.00
2019-03-17T00:40:19.056Z,0.00
2019-03-17T00:41:19.055Z,0.00
2019-03-17T00:42:19.034Z,0.00
2019-03-17T00:43:19.020Z,0.00
2019-03-17T00:44:19.049Z,0.00
2019-03-17T00:45:19.002Z,0.00
2019-03-17T00:46:19.018Z,0.00
2019-03-17T00:47:18.983Z,0.00
2019-03-17T00:48:18.966Z,0.00
2019-03-17T00:49:19.016Z,0.00
2019-03-17T00:50:18.971Z,0.00
2019-03-17T00:51:18.931Z,0.00
2019-03-17T00:52:18.935Z,0.00
2019-03-17T00:53:18.921Z,0.00
2019-03-17T00:54:18.909Z,0.00
2019-03-17T00:55:18.905Z,0.00
2019-03-17T00:56:18.933Z,0.00
2019-03-17T00:57:18.931Z,0.00
2019-03-17T00:58:18.940Z,0.00
2019-03-17T00:59:18.920Z,0.00
2019-03-17T01:00:18.857Z,0.00
2019-03-17T01:01:18.851Z,0.00
2019-03-17T01:02:18.871Z,0.00
2019-03-17T01:03:18.813Z,0.00
2019-03-17T01:04:18.802Z,0.00
2019-03-17T01:05:18.785Z,0.00
2019-03-17T01:06:18.793Z,0.00
2019-03-17T01:07:18.780Z,0.00
2019-03-17T01:08:18.754Z,0.00
2019-03-17T01:09:18.861Z,0.00
2019-03-17T01:10:18.851Z,0.00
2019-03-17T01:11:18.801Z,0.00
2019-03-17T01:12:18.803Z,0.00
2019-03-17T01:13:18.823Z,0.00
2019-03-17T01:14:18.789Z,0.00
2019-03-17T01:15:18.758Z,0.00
2019-03-17T01:16:18.660Z,0.00
2019-03-17T01:17:18.771Z,0.00
2019-03-17T01:18:18.769Z,0.00
2019-03-17T01:19:18.635Z,0.00
2019-03-17T01:20:18.656Z,0.00
2019-03-17T01:21:18.642Z,0.00
2019-03-17T01:22:18.605Z,0.00
2019-03-17T01:23:18.613Z,0.00
2019-03-17T01:24:18.591Z,0.00
2019-03-17T01:25:18.567Z,0.00
2019-03-17T01:26:18.567Z,0.00
2019-03-17T01:27:18.562Z,0.00
2019-03-17T01:28:18.524Z,0.00
2019-03-17T01:29:18.523Z,0.00
2019-03-17T01:30:18.525Z,0.00
2019-03-17T01:31:18.540Z,0.00
2019-03-17T01:32:18.495Z,0.00
2019-03-17T01:33:18.505Z,0.00
2019-03-17T01:34:18.466Z,0.00
2019-03-17T01:35:18.468Z,0.00
2019-03-17T01:36:18.442Z,0.00
2019-03-17T01:37:18.446Z,0.00
2019-03-17T01:38:18.425Z,0.00
2019-03-17T01:39:18.406Z,0.00
2019-03-17T01:40:18.404Z,0.00
2019-03-17T01:41:18.402Z,0.00
2019-03-17T01:42:18.632Z,0.00
2019-03-17T01:43:18.376Z,0.00
2019-03-17T01:44:18.371Z,0.00
2019-03-17T01:45:18.355Z,0.00
2019-03-17T01:46:18.341Z,0.00
2019-03-17T01:47:18.321Z,0.00
2019-03-17T01:48:18.309Z,0.00
2019-03-17T01:49:18.317Z,0.00
2019-03-17T01:50:18.311Z,0.00
2019-03-17T01:51:18.300Z,0.00
2019-03-17T01:52:18.277Z,0.00
2019-03-17T01:53:18.260Z,0.00
2019-03-17T01:54:18.257Z,0.00
2019-03-17T01:55:18.247Z,0.00
2019-03-17T01:56:18.226Z,0.00
2019-03-17T01:57:18.227Z,0.00
2019-03-17T01:58:18.210Z,0.00
2019-03-17T01:59:18.191Z,0.00
2019-03-17T02:00:18.192Z,0.00
2019-03-17T02:01:18.189Z,0.00
2019-03-17T02:02:18.164Z,0.00
2019-03-17T02:03:18.153Z,0.00
2019-03-17T02:04:18.148Z,0.00
2019-03-17T02:05:22.411Z,0.00
2019-03-17T02:06:18.125Z,0.00
2019-03-17T02:07:18.128Z,0.00
2019-03-17T02:08:18.117Z,0.00
2019-03-17T02:09:18.096Z,0.00
2019-03-17T02:10:18.088Z,0.00
2019-03-17T02:11:18.094Z,0.00
2019-03-17T02:12:18.091Z,0.00
2019-03-17T02:13:18.070Z,0.00
2019-03-17T02:14:18.042Z,0.00
2019-03-17T02:15:18.035Z,0.00
2019-03-17T02:16:18.013Z,0.00
2019-03-17T02:17:18.000Z,0.00
2019-03-17T02:18:18.013Z,0.00
2019-03-17T02:19:17.970Z,0.00
2019-03-17T02:20:17.970Z,0.00
2019-03-17T02:21:18.007Z,0.00
2019-03-17T02:22:18.012Z,0.00
2019-03-17T02:23:17.936Z,0.00
2019-03-17T02:24:17.921Z,0.00
2019-03-17T02:25:17.907Z,0.00
2019-03-17T02:26:17.910Z,0.00
2019-03-17T02:27:17.908Z,0.00
2019-03-17T02:28:17.885Z,0.00
2019-03-17T02:29:17.873Z,0.00
2019-03-17T02:30:17.886Z,0.00
2019-03-17T02:31:17.871Z,0.00
2019-03-17T02:32:17.862Z,0.00
2019-03-17T02:33:17.853Z,0.00
2019-03-17T02:34:17.821Z,0.00
2019-03-17T02:35:17.827Z,0.00
2019-03-17T02:36:17.809Z,0.00
2019-03-17T02:37:17.783Z,0.00
2019-03-17T02:38:17.769Z,0.00
2019-03-17T02:39:17.756Z,0.00
2019-03-17T02:40:17.754Z,0.00
2019-03-17T02:41:17.761Z,0.00
2019-03-17T02:42:17.728Z,0.00
2019-03-17T02:43:17.847Z,0.00
2019-03-17T02:44:17.709Z,0.00
2019-03-17T02:45:17.735Z,0.00
2019-03-17T02:46:17.694Z,0.00
2019-03-17T02:47:17.725Z,0.00
2019-03-17T02:48:17.657Z,0.00
2019-03-17T02:49:17.659Z,0.00
2019-03-17T02:50:17.663Z,0.00
2019-03-17T02:51:17.640Z,0.00
2019-03-17T02:52:17.644Z,0.00
2019-03-17T02:53:17.605Z,0.00
2019-03-17T02:54:17.595Z,0.00
2019-03-17T02:55:17.621Z,0.00
2019-03-17T02:56:17.596Z,0.00
2019-03-17T02:57:17.584Z,0.00
2019-03-17T02:58:17.561Z,0.00
2019-03-17T02:59:17.679Z,0.00
2019-03-17T03:00:18.721Z,0.00
2019-03-17T03:01:17.524Z,0.00
2019-03-17T03:02:17.503Z,0.00
2019-03-17T03:03:17.502Z,0.00
2019-03-17T03:04:17.522Z,0.00
2019-03-17T03:05:17.488Z,0.00
2019-03-17T03:06:17.462Z,0.00
2019-03-17T03:07:17.473Z,0.00
2019-03-17T03:08:17.461Z,0.00
2019-03-17T03:09:17.461Z,0.00
2019-03-17T03:10:17.424Z,0.00
2019-03-17T03:11:17.422Z,0.00
2019-03-17T03:12:17.406Z,0.00
2019-03-17T03:13:17.443Z,0.00
2019-03-17T03:14:17.384Z,0.00
2019-03-17T03:15:17.367Z,0.00
2019-03-17T03:16:17.371Z,0.00
2019-03-17T03:17:17.362Z,0.00
2019-03-17T03:18:17.511Z,0.00
2019-03-17T03:19:17.315Z,0.00
2019-03-17T03:20:17.320Z,0.00
2019-03-17T03:21:17.318Z,0.00
2019-03-17T03:22:17.335Z,0.00
2019-03-17T03:23:17.297Z,0.00
2019-03-17T03:24:17.274Z,0.00
2019-03-17T03:25:17.275Z,0.00
2019-03-17T03:26:17.266Z,0.00
2019-03-17T03:27:17.236Z,0.00
2019-03-17T03:28:17.228Z,0.00
2019-03-17T03:29:17.228Z,0.00
2019-03-17T03:30:17.241Z,0.00
2019-03-17T03:31:17.202Z,0.00
2019-03-17T03:32:17.190Z,0.00
2019-03-17T03:33:17.210Z,0.00
2019-03-17T03:34:17.160Z,0.00
2019-03-17T03:35:17.164Z,0.00
2019-03-17T03:36:17.201Z,0.00
2019-03-17T03:37:17.129Z,0.00
2019-03-17T03:38:17.123Z,0.00
2019-03-17T03:39:17.121Z,0.00
2019-03-17T03:40:17.098Z,0.00
2019-03-17T03:41:17.090Z,0.00
2019-03-17T03:42:17.102Z,0.00
2019-03-17T03:43:17.067Z,0.00
2019-03-17T03:44:17.074Z,0.00
2019-03-17T03:45:17.047Z,0.00
2019-03-17T03:46:17.038Z,0.00
2019-03-17T03:47:17.032Z,0.00
2019-03-17T03:48:17.010Z,0.00
2019-03-17T03:49:17.008Z,0.00
2019-03-17T03:50:17.007Z,0.00
2019-03-17T03:51:16.978Z,0.00
2019-03-17T03:52:16.969Z,0.00
2019-03-17T03:53:16.949Z,0.00
2019-03-17T03:54:16.957Z,0.00
2019-03-17T03:55:16.933Z,0.00
2019-03-17T03:56:16.926Z,0.00
2019-03-17T03:57:16.909Z,0.00
2019-03-17T03:58:16.904Z,0.00
2019-03-17T03:59:16.884Z,0.00
2019-03-17T04:00:16.890Z,0.00
2019-03-17T04:01:16.872Z,0.00
2019-03-17T04:02:16.864Z,0.00
2019-03-17T04:03:16.845Z,0.00
2019-03-17T04:04:16.852Z,0.00
2019-03-17T04:05:16.822Z,0.00
2019-03-17T04:06:26.327Z,0.00
2019-03-17T04:07:17.814Z,0.00
2019-03-17T04:08:16.821Z,0.00
2019-03-17T04:09:16.800Z,0.00
2019-03-17T04:10:16.770Z,0.00
2019-03-17T04:11:16.758Z,0.00
2019-03-17T04:12:16.811Z,0.00
2019-03-17T04:13:16.746Z,0.00
2019-03-17T04:14:16.735Z,0.00
2019-03-17T04:15:16.725Z,0.00
2019-03-17T04:16:16.700Z,0.00
2019-03-17T04:17:16.702Z,0.00
2019-03-17T04:18:16.798Z,0.00
2019-03-17T04:19:16.686Z,0.00
2019-03-17T04:20:16.666Z,0.00
2019-03-17T04:21:16.659Z,0.00
2019-03-17T04:22:16.642Z,0.00
2019-03-17T04:23:16.634Z,0.00
2019-03-17T04:24:16.623Z,0.00
2019-03-17T04:25:16.626Z,0.00
2019-03-17T04:26:16.661Z,0.00
2019-03-17T04:27:16.666Z,0.00
2019-03-17T04:28:16.740Z,0.00
2019-03-17T04:29:16.567Z,0.00
2019-03-17T04:30:16.632Z,0.00
2019-03-17T04:31:16.550Z,0.00
2019-03-17T04:32:16.553Z,0.00
2019-03-17T04:33:16.522Z,0.00
2019-03-17T04:34:16.513Z,0.00
2019-03-17T04:35:16.498Z,0.00
2019-03-17T04:36:16.495Z,0.00
2019-03-17T04:37:16.491Z,0.00
2019-03-17T04:38:16.484Z,0.00
2019-03-17T04:39:16.451Z,0.00
2019-03-17T04:40:16.455Z,0.00
2019-03-17T04:41:16.432Z,0.00
2019-03-17T04:42:16.489Z,0.00
2019-03-17T04:43:16.416Z,0.00
2019-03-17T04:44:21.095Z,0.00
2019-03-17T04:45:16.391Z,0.00
2019-03-17T04:46:16.389Z,0.00
2019-03-17T04:47:16.368Z,0.00
2019-03-17T04:48:16.380Z,0.00
2019-03-17T04:49:16.362Z,0.00
2019-03-17T04:50:16.354Z,0.00
2019-03-17T04:51:16.330Z,0.00
2019-03-17T04:52:16.325Z,0.00
2019-03-17T04:53:16.312Z,0.00
2019-03-17T04:54:16.308Z,0.00
2019-03-17T04:55:16.326Z,0.00
2019-03-17T04:56:16.284Z,0.00
2019-03-17T04:57:16.262Z,4.00
2019-03-17T04:58:16.255Z,0.00
2019-03-17T04:59:16.246Z,4.00
2019-03-17T05:00:16.225Z,0.00
2019-03-17T05:01:16.222Z,4.00
2019-03-17T05:02:16.198Z,4.00
2019-03-17T05:03:16.202Z,4.00
2019-03-17T05:04:16.185Z,4.00
2019-03-17T05:05:16.184Z,8.00
2019-03-17T05:06:16.181Z,8.00
2019-03-17T05:07:16.180Z,8.00
2019-03-17T05:08:16.146Z,8.00
2019-03-17T05:09:16.139Z,12.00
2019-03-17T05:10:16.115Z,12.00
2019-03-17T05:11:16.158Z,12.00
2019-03-17T05:12:16.095Z,12.00
2019-03-17T05:13:16.096Z,16.00
2019-03-17T05:14:16.081Z,16.00
2019-03-17T05:15:16.058Z,20.00
2019-03-17T05:16:16.086Z,20.00
2019-03-17T05:17:16.050Z,24.00
2019-03-17T05:18:16.041Z,24.00
2019-03-17T05:19:16.017Z,28.00
2019-03-17T05:20:16.011Z,28.00
2019-03-17T05:21:16.012Z,32.00
2019-03-17T05:22:15.988Z,32.00
2019-03-17T05:23:15.990Z,36.00
2019-03-17T05:24:15.996Z,40.00
2019-03-17T05:25:15.950Z,44.00
2019-03-17T05:26:15.961Z,40.00
2019-03-17T05:27:15.939Z,40.00
2019-03-17T05:28:15.925Z,40.00
2019-03-17T05:29:15.933Z,40.00
2019-03-17T05:30:15.901Z,44.00
2019-03-17T05:31:15.899Z,44.00
2019-03-17T05:32:15.877Z,44.00
2019-03-17T05:33:15.871Z,48.00
2019-03-17T05:34:15.895Z,48.00
2019-03-17T05:35:15.855Z,56.00
2019-03-17T05:36:15.827Z,60.00
2019-03-17T05:37:15.871Z,60.00
2019-03-17T05:38:15.837Z,64.00
2019-03-17T05:39:15.833Z,64.00
2019-03-17T05:40:15.820Z,64.00
2019-03-17T05:41:15.809Z,64.00
2019-03-17T05:42:15.851Z,64.00
2019-03-17T05:43:15.764Z,60.00
2019-03-17T05:44:15.757Z,64.00
2019-03-17T05:45:15.735Z,64.00
2019-03-17T05:46:15.736Z,64.00
2019-03-17T05:47:15.732Z,64.00
2019-03-17T05:48:15.697Z,64.00
2019-03-17T05:49:15.714Z,68.00
2019-03-17T05:50:15.685Z,68.00
2019-03-17T05:51:15.682Z,76.00
2019-03-17T05:52:15.737Z,84.00
2019-03-17T05:53:15.637Z,92.00
2019-03-17T05:54:15.641Z,104.00
2019-03-17T05:55:15.644Z,112.00
2019-03-17T05:56:15.628Z,128.00
2019-03-17T05:57:15.617Z,136.00
2019-03-17T05:58:15.607Z,140.00
2019-03-17T05:59:15.640Z,148.00
2019-03-17T06:00:15.576Z,148.00
2019-03-17T06:01:15.563Z,156.00
2019-03-17T06:02:15.553Z,172.00
2019-03-17T06:03:15.586Z,184.00
2019-03-17T06:04:15.531Z,196.00
2019-03-17T06:05:15.518Z,204.00
2019-03-17T06:06:15.508Z,212.00
2019-03-17T06:07:18.907Z,224.00
2019-03-17T06:08:15.488Z,236.00
2019-03-17T06:09:15.518Z,236.00
2019-03-17T06:10:15.453Z,236.00
2019-03-17T06:11:15.457Z,240.00
2019-03-17T06:12:15.455Z,244.00
2019-03-17T06:13:15.458Z,252.00
2019-03-17T06:14:15.425Z,264.00
2019-03-17T06:15:15.444Z,284.00
2019-03-17T06:16:15.505Z,300.00
2019-03-17T06:17:15.385Z,300.00
2019-03-17T06:18:15.374Z,316.00
2019-03-17T06:19:15.368Z,348.00
2019-03-17T06:20:15.357Z,404.00
2019-03-17T06:21:15.363Z,432.00
2019-03-17T06:22:15.326Z,416.00
2019-03-17T06:23:15.328Z,424.00
2019-03-17T06:24:15.306Z,428.00
2019-03-17T06:25:15.304Z,408.00
2019-03-17T06:26:15.289Z,416.00
2019-03-17T06:27:15.329Z,428.00
2019-03-17T06:28:15.269Z,432.00
2019-03-17T06:29:15.333Z,464.00
2019-03-17T06:30:15.252Z,484.00
2019-03-17T06:31:15.389Z,496.00
2019-03-17T06:32:15.244Z,476.00
2019-03-17T06:33:15.222Z,468.00
2019-03-17T06:34:15.279Z,456.00
2019-03-17T06:35:15.203Z,424.00
2019-03-17T06:36:15.182Z,404.00
2019-03-17T06:37:15.172Z,400.00
2019-03-17T06:38:15.180Z,404.00
2019-03-17T06:39:15.242Z,388.00
2019-03-17T06:40:15.219Z,384.00
2019-03-17T06:41:15.121Z,356.00
2019-03-17T06:42:15.112Z,348.00
2019-03-17T06:43:15.117Z,344.00
2019-03-17T06:44:15.092Z,344.00
2019-03-17T06:45:15.078Z,340.00
2019-03-17T06:46:15.072Z,348.00
2019-03-17T06:47:15.048Z,352.00
2019-03-17T06:48:15.054Z,372.00
2019-03-17T06:49:15.053Z,400.00
2019-03-17T06:50:15.030Z,432.00
2019-03-17T06:51:15.016Z,448.00
2019-03-17T06:52:15.017Z,448.00
2019-03-17T06:53:15.000Z,456.00
2019-03-17T06:54:14.994Z,484.00
2019-03-17T06:55:14.978Z,556.00
2019-03-17T06:56:14.953Z,644.00
2019-03-17T06:57:14.951Z,700.00
2019-03-17T06:58:14.935Z,724.00
2019-03-17T06:59:17.505Z,792.00
2019-03-17T07:00:14.937Z,816.00
2019-03-17T07:01:14.901Z,832.00
2019-03-17T07:02:14.895Z,788.00
2019-03-17T07:03:14.888Z,824.00
2019-03-17T07:04:14.877Z,848.00
2019-03-17T07:05:14.868Z,864.00
2019-03-17T07:06:14.855Z,908.00
2019-03-17T07:07:17.107Z,988.00
2019-03-17T07:08:14.843Z,1044.00
2019-03-17T07:09:14.811Z,1148.00
2019-03-17T07:10:14.829Z,1404.00
2019-03-17T07:11:14.790Z,1816.00
2019-03-17T07:12:14.990Z,2256.00
2019-03-17T07:13:14.839Z,2116.00
2019-03-17T07:14:14.773Z,1920.00
2019-03-17T07:15:14.785Z,1684.00
2019-03-17T07:16:14.757Z,1412.00
2019-03-17T07:17:14.742Z,1220.00
2019-03-17T07:18:14.761Z,1380.00
2019-03-17T07:19:14.763Z,1368.00
2019-03-17T07:20:14.716Z,1284.00
2019-03-17T07:21:14.690Z,1380.00
2019-03-17T07:22:14.684Z,1364.00
2019-03-17T07:23:14.677Z,1048.00
2019-03-17T07:24:14.673Z,944.00
2019-03-17T07:25:14.647Z,928.00
2019-03-17T07:26:14.645Z,972.00
2019-03-17T07:27:14.624Z,824.00
2019-03-17T07:28:14.803Z,712.00
2019-03-17T07:29:14.738Z,772.00
2019-03-17T07:30:14.628Z,892.00
2019-03-17T07:31:14.606Z,996.00
2019-03-17T07:32:14.744Z,960.00
2019-03-17T07:33:14.568Z,1064.00
2019-03-17T07:34:14.553Z,1292.00
2019-03-17T07:35:14.547Z,1692.00
2019-03-17T07:36:14.521Z,2092.00
2019-03-17T07:37:14.523Z,2324.00
2019-03-17T07:38:14.514Z,2396.00
2019-03-17T07:39:14.501Z,2672.00
2019-03-17T07:40:14.499Z,2140.00
2019-03-17T07:41:14.542Z,1844.00
2019-03-17T07:42:14.465Z,1560.00
2019-03-17T07:43:14.456Z,1104.00
2019-03-17T07:44:14.457Z,860.00
2019-03-17T07:45:14.453Z,908.00
2019-03-17T07:46:14.494Z,948.00
2019-03-17T07:47:14.411Z,856.00
2019-03-17T07:48:14.506Z,932.00
2019-03-17T07:49:14.382Z,1140.00
2019-03-17T07:50:14.383Z,1372.00
2019-03-17T07:51:14.370Z,1632.00
2019-03-17T07:52:14.359Z,1976.00
2019-03-17T07:53:14.353Z,2576.00
2019-03-17T07:54:14.330Z,3000.00
2019-03-17T07:55:14.322Z,2328.00
2019-03-17T07:56:14.319Z,2032.00
2019-03-17T07:57:14.308Z,1868.00
2019-03-17T07:58:14.279Z,2144.00
2019-03-17T07:59:14.275Z,2220.00
2019-03-17T08:00:14.308Z,2220.00
2019-03-17T08:01:14.255Z,2124.00
2019-03-17T08:02:14.243Z,1976.00
2019-03-17T08:03:14.249Z,2048.00
2019-03-17T08:04:14.273Z,2036.00
2019-03-17T08:05:14.213Z,2068.00
2019-03-17T08:06:14.186Z,2116.00
2019-03-17T08:07:14.186Z,2088.00
2019-03-17T08:08:14.193Z,2080.00
2019-03-17T08:09:14.172Z,2064.00
2019-03-17T08:10:14.200Z,2020.00
2019-03-17T08:11:14.140Z,2000.00
2019-03-17T08:12:14.324Z,1944.00
2019-03-17T08:13:14.149Z,1808.00
2019-03-17T08:14:14.139Z,1716.00
2019-03-17T08:15:14.099Z,1728.00
2019-03-17T08:16:14.091Z,1956.00
2019-03-17T08:17:14.082Z,2048.00
2019-03-17T08:18:14.059Z,2092.00
2019-03-17T08:19:14.054Z,2124.00
2019-03-17T08:20:14.057Z,2112.00
2019-03-17T08:21:14.027Z,2132.00
2019-03-17T08:22:14.028Z,2088.00
2019-03-17T08:23:14.005Z,1984.00
2019-03-17T08:24:14.010Z,1992.00
2019-03-17T08:25:13.984Z,2140.00
2019-03-17T08:26:13.985Z,2144.00
2019-03-17T08:27:13.981Z,2364.00
2019-03-17T08:28:13.954Z,2048.00
2019-03-17T08:29:13.951Z,1996.00
2019-03-17T08:30:13.935Z,2224.00
2019-03-17T08:31:13.957Z,2248.00
2019-03-17T08:32:13.926Z,2320.00
2019-03-17T08:33:13.928Z,2256.00
2019-03-17T08:34:13.888Z,2272.00
2019-03-17T08:35:13.873Z,2260.00
2019-03-17T08:36:13.868Z,2276.00
2019-03-17T08:37:13.859Z,2168.00
2019-03-17T08:38:21.716Z,2284.00
2019-03-17T08:39:14.829Z,2480.00
2019-03-17T08:40:13.824Z,3124.00
2019-03-17T08:41:13.818Z,3168.00
2019-03-17T08:42:13.823Z,4908.00
2019-03-17T08:43:13.807Z,4948.00
2019-03-17T08:44:13.764Z,3436.00
2019-03-17T08:45:13.764Z,3080.00
2019-03-17T08:46:13.747Z,3916.00
2019-03-17T08:47:13.737Z,4676.00
2019-03-17T08:48:13.735Z,4668.00
2019-03-17T08:49:13.719Z,5356.00
2019-03-17T08:50:13.755Z,5552.00
2019-03-17T08:51:13.728Z,5228.00
2019-03-17T08:52:13.730Z,4868.00
2019-03-17T08:53:13.679Z,4164.00
2019-03-17T08:54:13.669Z,4244.00
2019-03-17T08:55:13.671Z,5276.00
2019-03-17T08:56:13.690Z,4800.00
2019-03-17T08:57:13.674Z,3696.00
2019-03-17T08:58:13.629Z,4216.00
2019-03-17T08:59:13.644Z,3964.00
2019-03-17T09:00:13.616Z,3568.00
2019-03-17T09:01:13.591Z,3308.00
2019-03-17T09:02:13.580Z,3424.00
2019-03-17T09:03:13.561Z,2512.00
2019-03-17T09:04:13.552Z,3088.00
2019-03-17T09:05:13.573Z,2380.00
2019-03-17T09:06:13.537Z,2648.00
2019-03-17T09:07:13.522Z,2632.00
2019-03-17T09:08:13.507Z,2484.00
2019-03-17T09:09:13.526Z,2572.00
2019-03-17T09:10:13.506Z,2568.00
2019-03-17T09:11:13.502Z,2888.00
2019-03-17T09:12:13.515Z,2692.00
2019-03-17T09:13:13.483Z,2352.00
2019-03-17T09:14:13.443Z,2380.00
2019-03-17T09:15:13.455Z,2348.00
2019-03-17T09:16:13.417Z,2388.00
2019-03-17T09:17:14.563Z,2460.00
2019-03-17T09:18:13.426Z,2416.00
2019-03-17T09:19:13.376Z,2520.00
2019-03-17T09:20:13.376Z,2488.00
2019-03-17T09:21:13.370Z,2428.00
2019-03-17T09:22:13.357Z,2420.00
2019-03-17T09:23:13.350Z,2436.00
2019-03-17T09:24:17.525Z,2612.00
2019-03-17T09:25:13.535Z,2672.00
2019-03-17T09:26:13.310Z,2852.00
2019-03-17T09:27:13.302Z,4572.00
2019-03-17T09:28:13.307Z,3264.00
2019-03-17T09:29:13.316Z,3416.00
2019-03-17T09:30:13.326Z,3256.00
2019-03-17T09:31:13.338Z,2636.00
2019-03-17T09:32:13.249Z,2528.00
2019-03-17T09:33:13.243Z,3308.00
2019-03-17T09:34:13.273Z,3368.00
2019-03-17T09:35:13.205Z,3524.00
2019-03-17T09:36:13.188Z,1472.00
2019-03-17T09:37:13.196Z,2864.00
2019-03-17T09:38:13.194Z,3300.00
2019-03-17T09:39:13.170Z,4168.00
2019-03-17T09:40:13.158Z,4064.00
2019-03-17T09:41:13.143Z,4128.00
2019-03-17T09:42:13.220Z,4372.00
2019-03-17T09:43:13.214Z,4888.00
2019-03-17T09:44:13.112Z,2836.00
2019-03-17T09:45:13.199Z,5824.00
2019-03-17T09:46:13.098Z,9232.00
2019-03-17T09:47:13.084Z,6396.00
2019-03-17T09:48:13.170Z,4108.00
2019-03-17T09:49:13.068Z,4128.00
2019-03-17T09:50:13.052Z,5516.00
2019-03-17T09:51:13.034Z,3724.00
2019-03-17T09:52:13.083Z,4220.00
2019-03-17T09:53:13.011Z,5568.00
2019-03-17T09:54:12.998Z,2600.00
2019-03-17T09:55:12.985Z,2236.00
2019-03-17T09:56:12.999Z,3268.00
2019-03-17T09:57:12.968Z,3344.00
2019-03-17T09:58:13.011Z,2308.00
2019-03-17T09:59:12.948Z,2760.00
2019-03-17T10:00:12.933Z,3328.00
2019-03-17T10:01:12.913Z,3328.00
2019-03-17T10:02:12.914Z,3512.00
2019-03-17T10:03:12.889Z,5036.00
2019-03-17T10:04:12.878Z,3112.00
2019-03-17T10:05:12.938Z,3000.00
2019-03-17T10:06:12.911Z,3508.00
2019-03-17T10:07:12.909Z,2884.00
2019-03-17T10:08:12.842Z,2412.00
2019-03-17T10:09:12.833Z,2280.00
2019-03-17T10:10:12.815Z,3204.00
2019-03-17T10:11:12.801Z,4284.00
2019-03-17T10:12:12.807Z,3952.00
2019-03-17T10:13:12.789Z,5244.00
2019-03-17T10:14:12.777Z,3532.00
2019-03-17T10:15:12.766Z,2732.00
2019-03-17T10:16:12.753Z,1820.00
2019-03-17T10:17:12.755Z,1864.00
2019-03-17T10:18:12.733Z,2496.00
2019-03-17T10:19:12.717Z,2936.00
2019-03-17T10:20:12.702Z,3364.00
2019-03-17T10:21:12.734Z,4072.00
2019-03-17T10:22:12.684Z,4048.00
2019-03-17T10:23:12.677Z,3864.00
2019-03-17T10:24:12.670Z,3528.00
2019-03-17T10:25:12.653Z,2648.00
2019-03-17T10:26:12.669Z,2056.00
2019-03-17T10:27:12.626Z,1304.00
2019-03-17T10:28:12.627Z,1324.00
2019-03-17T10:29:12.618Z,1256.00
2019-03-17T10:30:12.592Z,1064.00
2019-03-17T10:31:12.586Z,896.00
2019-03-17T10:32:12.579Z,1108.00
2019-03-17T10:33:12.616Z,1068.00
2019-03-17T10:34:12.558Z,1068.00
2019-03-17T10:35:12.548Z,976.00
2019-03-17T10:36:12.523Z,1020.00
2019-03-17T10:37:12.521Z,1092.00
2019-03-17T10:38:12.513Z,1324.00
2019-03-17T10:39:12.927Z,1660.00
2019-03-17T10:40:12.485Z,1788.00
2019-03-17T10:41:12.480Z,1800.00
2019-03-17T10:42:12.469Z,1968.00
2019-03-17T10:43:12.450Z,2172.00
2019-03-17T10:44:12.443Z,2336.00
2019-03-17T10:45:12.441Z,2716.00
2019-03-17T10:46:12.424Z,2868.00
2019-03-17T10:47:12.409Z,3028.00
2019-03-17T10:48:12.414Z,3560.00
2019-03-17T10:49:12.399Z,3560.00
2019-03-17T10:50:12.368Z,3192.00
2019-03-17T10:51:12.367Z,2692.00
2019-03-17T10:52:12.351Z,2364.00
2019-03-17T10:53:12.338Z,2516.00
2019-03-17T10:54:14.838Z,2652.00
2019-03-17T10:55:12.316Z,2560.00
2019-03-17T10:56:12.345Z,2456.00
2019-03-17T10:57:12.299Z,2968.00
2019-03-17T10:58:12.284Z,3432.00
2019-03-17T10:59:12.270Z,3176.00
2019-03-17T11:00:12.276Z,2764.00
2019-03-17T11:01:12.244Z,2992.00
2019-03-17T11:02:12.244Z,3712.00
2019-03-17T11:03:12.230Z,4124.00
2019-03-17T11:04:12.219Z,4568.00
2019-03-17T11:05:12.215Z,4076.00
2019-03-17T11:06:12.258Z,3220.00
2019-03-17T11:07:12.190Z,2916.00
2019-03-17T11:08:12.184Z,2524.00
2019-03-17T11:09:24.351Z,2568.00
2019-03-17T11:10:13.147Z,2564.00
2019-03-17T11:11:12.385Z,2936.00
2019-03-17T11:12:12.191Z,3268.00
2019-03-17T11:13:12.110Z,2672.00
2019-03-17T11:14:12.107Z,2384.00
2019-03-17T11:15:12.120Z,2488.00
2019-03-17T11:16:12.107Z,2604.00
2019-03-17T11:17:12.096Z,2552.00
2019-03-17T11:18:12.059Z,2604.00
2019-03-17T11:19:12.066Z,2808.00
2019-03-17T11:20:12.071Z,2768.00
2019-03-17T11:21:12.043Z,2564.00
2019-03-17T11:22:12.029Z,2796.00
2019-03-17T11:23:12.097Z,2656.00
2019-03-17T11:24:12.058Z,2636.00
2019-03-17T11:25:11.989Z,2624.00
2019-03-17T11:26:11.976Z,3000.00
2019-03-17T11:27:11.960Z,3188.00
2019-03-17T11:28:12.006Z,2852.00
2019-03-17T11:29:11.970Z,2564.00
2019-03-17T11:30:11.920Z,2436.00
2019-03-17T11:31:11.919Z,2548.00
2019-03-17T11:32:11.918Z,2204.00
2019-03-17T11:33:11.898Z,1788.00
2019-03-17T11:34:11.880Z,1616.00
2019-03-17T11:35:11.871Z,1292.00
2019-03-17T11:36:11.865Z,1352.00
2019-03-17T11:37:11.962Z,1660.00
2019-03-17T11:38:11.834Z,1876.00
2019-03-17T11:39:11.834Z,1708.00
2019-03-17T11:40:11.903Z,1540.00
2019-03-17T11:41:11.797Z,1964.00
2019-03-17T11:42:11.792Z,2192.00
2019-03-17T11:43:11.799Z,2224.00
2019-03-17T11:44:11.858Z,2528.00
2019-03-17T11:45:11.774Z,2896.00
2019-03-17T11:46:11.768Z,2604.00
2019-03-17T11:47:13.329Z,2336.00
2019-03-17T11:48:11.733Z,2092.00
2019-03-17T11:49:11.725Z,2060.00
2019-03-17T11:50:11.716Z,2080.00
2019-03-17T11:51:11.698Z,2052.00
2019-03-17T11:52:11.683Z,1568.00
2019-03-17T11:53:11.679Z,1372.00
2019-03-17T11:54:11.683Z,1080.00
2019-03-17T11:55:11.881Z,1268.00
2019-03-17T11:56:11.636Z,1272.00
2019-03-17T11:57:11.620Z,1516.00
2019-03-17T11:58:11.614Z,1908.00
2019-03-17T11:59:11.607Z,1800.00
2019-03-17T12:00:11.601Z,1660.00
2019-03-17T12:01:11.593Z,1480.00
2019-03-17T12:02:11.571Z,1260.00
2019-03-17T12:03:11.553Z,1384.00
2019-03-17T12:04:11.550Z,1424.00
2019-03-17T12:05:11.535Z,1320.00
2019-03-17T12:06:11.586Z,1232.00
2019-03-17T12:07:11.592Z,1412.00
2019-03-17T12:08:11.501Z,1332.00
2019-03-17T12:09:11.491Z,1064.00
2019-03-17T12:10:11.479Z,976.00
2019-03-17T12:11:11.476Z,1332.00
2019-03-17T12:12:11.470Z,2032.00
2019-03-17T12:13:11.454Z,2472.00
2019-03-17T12:14:11.432Z,2528.00
2019-03-17T12:15:11.748Z,2220.00
2019-03-17T12:16:11.440Z,2016.00
2019-03-17T12:17:11.409Z,1760.00
2019-03-17T12:18:11.425Z,1648.00
2019-03-17T12:19:11.634Z,1184.00
2019-03-17T12:20:11.381Z,1032.00
2019-03-17T12:21:11.379Z,1196.00
2019-03-17T12:22:11.363Z,1148.00
2019-03-17T12:23:11.347Z,1076.00
2019-03-17T12:24:11.351Z,904.00
2019-03-17T12:25:11.701Z,848.00
2019-03-17T12:26:11.318Z,956.00
2019-03-17T12:27:11.306Z,1104.00
2019-03-17T12:28:11.361Z,960.00
2019-03-17T12:29:11.294Z,860.00
2019-03-17T12:30:11.262Z,1076.00
2019-03-17T12:31:11.284Z,1460.00
2019-03-17T12:32:11.257Z,1656.00
2019-03-17T12:33:11.236Z,1508.00
2019-03-17T12:34:11.219Z,1492.00
2019-03-17T12:35:11.224Z,1500.00
2019-03-17T12:36:11.186Z,1388.00
2019-03-17T12:37:11.263Z,1424.00
2019-03-17T12:38:11.178Z,1360.00
2019-03-17T12:39:11.190Z,1472.00